Time;durP1;ratioP1;P1;durP2;ratioP2;P2;SDS_P1;SDS_P2;PMS_P1;PMS_P2;Temp;Humidity;BMP_temperature;BMP_pressure;BME280_temperature;BME280_humidity;BME280_pressure;Samples;Min_cycle;Max_cycle;Signal;HPM_P1;HPM_P2
2022/02/22 00:01:08;;;;;;;1.45;1.35;;;3.80;99.90;;;;;;7387965;19;20326;-79
2022/02/22 00:03:36;;;;;;;3.38;1.40;;;3.70;99.90;;;;;;7375612;19;20329;-80
2022/02/22 00:06:04;;;;;;;1.50;1.40;;;3.80;99.90;;;;;;7369100;19;20345;-80
2022/02/22 00:08:31;;;;;;;1.35;1.25;;;3.80;99.90;;;;;;7394277;19;20347;-80
2022/02/22 00:10:58;;;;;;;5.85;1.80;;;3.80;99.90;;;;;;7411346;19;20326;-79
2022/02/22 00:13:27;;;;;;;1.80;1.30;;;3.90;99.90;;;;;;7413398;19;20363;-79
2022/02/22 00:15:53;;;;;;;2.63;1.57;;;3.60;99.90;;;;;;7389188;19;20312;-79
2022/02/22 00:18:19;;;;;;;1.40;1.30;;;3.90;99.90;;;;;;7386469;19;20336;-80
2022/02/22 00:20:45;;;;;;;3.40;1.70;;;3.90;99.90;;;;;;7386759;19;20726;-79
2022/02/22 00:23:11;;;;;;;3.00;1.60;;;3.80;99.90;;;;;;7385443;19;20340;-79
2022/02/22 00:25:37;;;;;;;1.95;1.30;;;3.80;99.90;;;;;;7386284;19;20330;-79
2022/02/22 00:28:03;;;;;;;4.13;1.60;;;3.80;99.90;;;;;;7386721;19;20319;-79
2022/02/22 00:30:29;;;;;;;1.40;1.30;;;3.90;99.90;;;;;;7382769;19;20399;-79
2022/02/22 00:32:55;;;;;;;1.58;1.48;;;3.90;99.90;;;;;;7383393;19;20862;-80
2022/02/22 00:35:21;;;;;;;3.40;1.60;;;3.90;99.90;;;;;;7386267;19;20336;-79
2022/02/22 00:37:47;;;;;;;2.50;1.50;;;3.80;99.90;;;;;;7383230;19;20654;-80
2022/02/22 00:40:13;;;;;;;3.03;1.48;;;3.80;99.90;;;;;;7383258;19;20320;-80
2022/02/22 00:42:39;;;;;;;2.30;1.77;;;3.90;99.90;;;;;;7384120;19;20355;-80
2022/02/22 00:45:06;;;;;;;1.85;1.35;;;3.90;99.90;;;;;;7384649;19;20329;-81
2022/02/22 00:47:32;;;;;;;2.78;1.70;;;3.90;99.90;;;;;;7386702;19;20312;-79
2022/02/22 00:49:57;;;;;;;3.57;1.60;;;3.80;99.90;;;;;;7384859;19;20393;-80
2022/02/22 00:52:23;;;;;;;1.47;1.27;;;4.00;99.90;;;;;;7384969;19;20312;-80
2022/02/22 00:54:49;;;;;;;2.33;1.45;;;4.00;99.90;;;;;;7386120;19;20655;-80
2022/02/22 00:57:15;;;;;;;2.45;1.60;;;4.00;99.90;;;;;;7384526;19;20341;-80
2022/02/22 00:59:41;;;;;;;2.63;1.55;;;3.90;99.90;;;;;;7382253;19;20333;-79
2022/02/22 01:02:07;;;;;;;2.73;1.50;;;4.00;99.90;;;;;;7383679;19;20344;-79
2022/02/22 01:04:33;;;;;;;1.77;1.53;;;4.00;99.90;;;;;;7382240;19;20325;-79
2022/02/22 01:06:59;;;;;;;1.48;1.38;;;4.00;99.90;;;;;;7381316;19;20336;-79
2022/02/22 01:09:24;;;;;;;2.40;1.73;;;4.00;99.90;;;;;;7385811;19;20333;-80
2022/02/22 01:11:53;;;;;;;2.80;1.63;;;4.00;99.90;;;;;;7382125;19;20689;-79
2022/02/22 01:14:19;;;;;;;1.90;1.40;;;4.00;99.90;;;;;;7383750;19;20656;-79
2022/02/22 01:16:45;;;;;;;3.07;1.70;;;4.00;99.90;;;;;;7385360;19;20329;-80
2022/02/22 01:19:11;;;;;;;3.00;1.70;;;4.00;99.90;;;;;;7383122;19;20360;-79
2022/02/22 01:21:37;;;;;;;3.75;1.75;;;4.00;99.90;;;;;;7375915;19;20332;-79
2022/02/22 01:24:04;;;;;;;4.57;1.63;;;4.00;99.90;;;;;;7377800;19;20396;-79
2022/02/22 01:26:29;;;;;;;3.53;1.43;;;4.00;99.90;;;;;;7381010;19;20760;-80
2022/02/22 01:28:55;;;;;;;2.80;1.50;;;4.10;99.90;;;;;;7382370;19;20371;-79
2022/02/22 01:31:21;;;;;;;3.78;1.90;;;4.00;99.90;;;;;;7380692;19;20332;-79
2022/02/22 01:33:47;;;;;;;2.60;1.80;;;4.00;99.90;;;;;;7380326;19;20333;-80
2022/02/22 01:36:13;;;;;;;3.65;1.80;;;4.10;99.90;;;;;;7381281;19;20413;-80
2022/02/22 01:38:41;;;;;;;3.43;1.67;;;4.10;99.90;;;;;;7380681;19;20874;-80
2022/02/22 01:41:08;;;;;;;2.20;1.60;;;4.10;99.90;;;;;;7379564;19;20331;-79
2022/02/22 01:43:33;;;;;;;1.98;1.60;;;4.10;99.90;;;;;;7380107;19;20316;-80
2022/02/22 01:45:59;;;;;;;4.07;1.90;;;4.10;99.90;;;;;;7379940;19;20325;-80
2022/02/22 01:48:25;;;;;;;3.20;1.65;;;3.90;99.90;;;;;;7379911;19;20312;-79
2022/02/22 01:50:51;;;;;;;1.80;1.70;;;4.00;99.90;;;;;;7379948;19;20328;-80
2022/02/22 01:53:17;;;;;;;4.07;1.85;;;4.10;99.90;;;;;;7380167;19;20847;-80
2022/02/22 01:55:43;;;;;;;1.50;1.40;;;4.00;99.90;;;;;;7379645;19;21027;-79
2022/02/22 01:58:09;;;;;;;2.67;1.80;;;4.00;99.90;;;;;;7378108;19;20327;-84
2022/02/22 02:00:35;;;;;;;3.80;2.00;;;4.00;99.90;;;;;;7376969;19;20709;-80
2022/02/22 02:03:01;;;;;;;3.90;1.80;;;4.00;99.90;;;;;;7381053;19;20329;-79
2022/02/22 02:05:27;;;;;;;3.45;1.80;;;4.00;99.90;;;;;;7379490;19;20891;-80
2022/02/22 02:07:55;;;;;;;4.87;1.90;;;4.00;99.90;;;;;;7381158;19;20420;-80
2022/02/22 02:10:21;;;;;;;4.10;2.00;;;4.00;99.90;;;;;;7382688;19;20332;-80
2022/02/22 02:12:47;;;;;;;3.77;1.73;;;4.10;99.90;;;;;;7379876;19;20384;-80
2022/02/22 02:15:12;;;;;;;1.40;1.30;;;4.00;99.90;;;;;;7381922;19;20360;-80
2022/02/22 02:17:38;;;;;;;2.95;1.92;;;4.00;99.90;;;;;;7379465;19;20974;-81
2022/02/22 02:20:07;;;;;;;3.60;1.90;;;4.00;99.90;;;;;;7376940;19;20912;-80
2022/02/22 02:22:33;;;;;;;2.60;1.90;;;4.00;99.90;;;;;;7379115;19;20392;-79
2022/02/22 02:24:59;;;;;;;2.23;1.60;;;4.00;99.90;;;;;;7379949;19;20332;-80
2022/02/22 02:27:25;;;;;;;2.57;1.90;;;4.10;99.90;;;;;;7378188;19;20332;-78
2022/02/22 02:29:50;;;;;;;3.20;1.60;;;4.20;99.90;;;;;;7385400;19;20332;-80
2022/02/22 02:32:16;;;;;;;3.70;1.90;;;4.10;99.90;;;;;;7383481;19;20696;-80
2022/02/22 02:34:42;;;;;;;2.00;1.70;;;4.10;99.90;;;;;;7380125;19;21239;-80
2022/02/22 02:37:07;;;;;;;2.40;1.43;;;4.10;99.90;;;;;;7387022;19;20400;-79
2022/02/22 02:39:33;;;;;;;3.55;1.73;;;4.10;99.90;;;;;;7386071;19;20361;-79
2022/02/22 02:41:59;;;;;;;3.15;1.45;;;4.10;99.90;;;;;;7387036;19;20714;-81
2022/02/22 02:44:25;;;;;;;2.40;1.23;;;4.10;99.90;;;;;;7385493;19;20300;-80
2022/02/22 02:46:51;;;;;;;1.73;1.20;;;4.40;99.90;;;;;;7384078;19;20330;-80
2022/02/22 02:49:17;;;;;;;2.42;1.17;;;4.20;99.90;;;;;;7386958;19;20309;-80
2022/02/22 02:51:44;;;;;;;2.70;1.73;;;4.30;99.90;;;;;;7380617;19;20320;-80
2022/02/22 02:54:10;;;;;;;2.10;1.40;;;4.30;99.90;;;;;;7385119;19;20332;-79
2022/02/22 02:56:35;;;;;;;1.55;1.40;;;4.30;99.90;;;;;;7386105;19;20343;-79
2022/02/22 02:59:03;;;;;;;1.60;1.40;;;4.30;99.90;;;;;;7385186;19;20324;-79
2022/02/22 03:01:30;;;;;;;2.08;1.48;;;4.40;99.90;;;;;;7380666;19;20336;-80
2022/02/22 03:03:55;;;;;;;1.47;1.37;;;4.40;99.90;;;;;;7386134;19;20316;-80
2022/02/22 03:06:21;;;;;;;1.25;1.15;;;4.50;99.90;;;;;;7385322;19;20413;-80
2022/02/22 03:08:47;;;;;;;3.92;1.70;;;4.60;99.90;;;;;;7384751;19;20344;-79
2022/02/22 03:11:13;;;;;;;2.40;1.40;;;4.40;99.90;;;;;;7386570;19;20945;-79
2022/02/22 03:13:38;;;;;;;2.08;1.58;;;4.40;99.90;;;;;;7371100;19;20387;-79
2022/02/22 03:16:05;;;;;;;4.95;1.65;;;4.40;99.90;;;;;;7382735;19;20336;-80
2022/02/22 03:18:31;;;;;;;1.50;1.40;;;4.50;99.90;;;;;;7383725;19;20323;-80
2022/02/22 03:20:57;;;;;;;1.77;1.63;;;4.40;99.90;;;;;;7385165;19;20349;-79
2022/02/22 03:23:22;;;;;;;1.83;1.50;;;4.50;99.90;;;;;;7383667;19;20432;-80
2022/02/22 03:25:48;;;;;;;1.70;1.60;;;4.50;99.90;;;;;;7386523;19;20353;-79
2022/02/22 03:28:14;;;;;;;3.27;1.87;;;4.50;99.90;;;;;;7381704;19;20328;-78
2022/02/22 03:30:40;;;;;;;3.10;1.60;;;4.60;99.90;;;;;;7385019;19;20417;-80
2022/02/22 03:33:08;;;;;;;2.90;1.55;;;4.60;99.90;;;;;;7384512;19;20365;-79
2022/02/22 03:35:34;;;;;;;3.22;1.95;;;4.60;99.90;;;;;;7384007;19;20320;-80
2022/02/22 03:38:00;;;;;;;2.22;1.38;;;4.60;99.90;;;;;;7382818;19;20329;-79
2022/02/22 03:40:26;;;;;;;2.77;1.73;;;4.40;99.90;;;;;;7385276;19;20878;-79
2022/02/22 03:42:51;;;;;;;5.97;1.85;;;4.60;99.90;;;;;;7388034;19;20324;-79
2022/02/22 03:45:17;;;;;;;1.52;1.33;;;4.60;99.90;;;;;;7386508;19;20872;-78
2022/02/22 03:47:43;;;;;;;3.13;1.53;;;4.70;99.90;;;;;;7383449;19;20326;-78
2022/02/22 03:50:09;;;;;;;2.10;1.45;;;4.70;99.90;;;;;;7384705;19;20328;-80
2022/02/22 03:52:35;;;;;;;4.37;1.77;;;4.70;99.90;;;;;;7380142;19;20335;-80
2022/02/22 03:55:01;;;;;;;2.35;1.40;;;4.70;99.90;;;;;;7379735;19;20317;-80
2022/02/22 03:57:27;;;;;;;1.93;1.40;;;4.70;99.90;;;;;;7383265;19;20324;-79
2022/02/22 03:59:53;;;;;;;2.47;1.40;;;4.60;99.90;;;;;;7382298;19;20356;-80
2022/02/22 04:02:18;;;;;;;1.40;1.30;;;4.50;99.90;;;;;;7379495;19;20332;-80
2022/02/22 04:04:44;;;;;;;2.80;1.70;;;4.50;99.90;;;;;;7382496;19;20680;-79
2022/02/22 04:07:10;;;;;;;1.80;1.60;;;4.60;99.90;;;;;;7381656;19;20329;-79
2022/02/22 04:09:36;;;;;;;2.10;1.30;;;4.60;99.90;;;;;;7383602;19;20321;-80
2022/02/22 04:12:02;;;;;;;4.47;1.45;;;4.60;99.90;;;;;;7381059;19;20329;-79
2022/02/22 04:14:28;;;;;;;2.88;1.48;;;4.60;99.90;;;;;;7382577;19;20340;-79
2022/02/22 04:16:54;;;;;;;1.90;1.25;;;4.70;99.90;;;;;;7384400;19;20313;-79
2022/02/22 04:19:19;;;;;;;1.40;1.30;;;4.60;99.90;;;;;;7384251;19;20391;-79
2022/02/22 04:21:45;;;;;;;1.08;0.98;;;4.50;99.90;;;;;;7385466;19;20316;-79
2022/02/22 04:24:11;;;;;;;1.25;1.15;;;4.60;99.90;;;;;;7386324;19;20320;-80
2022/02/22 04:26:37;;;;;;;2.73;1.53;;;4.50;99.90;;;;;;7382029;19;20344;-80
2022/02/22 04:29:03;;;;;;;1.98;1.35;;;4.30;99.90;;;;;;7386038;19;20312;-80
2022/02/22 04:31:29;;;;;;;1.40;1.20;;;4.50;99.90;;;;;;7380703;19;20416;-80
2022/02/22 04:33:54;;;;;;;3.45;1.60;;;4.60;99.90;;;;;;7381442;19;20336;-80
2022/02/22 04:36:20;;;;;;;1.93;1.40;;;4.50;99.90;;;;;;7382121;19;20344;-80
2022/02/22 04:38:46;;;;;;;3.28;1.50;;;4.50;99.90;;;;;;7380004;19;20873;-80
2022/02/22 04:41:12;;;;;;;4.00;1.98;;;4.50;99.90;;;;;;7382137;19;20364;-80
2022/02/22 04:43:38;;;;;;;2.70;1.27;;;4.50;99.90;;;;;;7384055;19;20341;-80
2022/02/22 04:46:03;;;;;;;2.13;1.35;;;4.60;99.90;;;;;;7382452;19;20395;-79
2022/02/22 04:48:29;;;;;;;3.70;1.65;;;4.60;99.90;;;;;;7376724;19;20321;-80
2022/02/22 04:50:55;;;;;;;1.43;1.33;;;4.60;99.90;;;;;;7380863;19;20321;-79
2022/02/22 04:53:20;;;;;;;4.07;1.60;;;4.50;99.90;;;;;;7383084;19;20312;-80
2022/02/22 04:55:46;;;;;;;1.50;1.20;;;4.70;99.90;;;;;;7383248;19;20336;-79
2022/02/22 04:58:12;;;;;;;1.60;1.30;;;4.40;99.90;;;;;;7381853;19;20660;-80
2022/02/22 05:00:38;;;;;;;1.53;1.30;;;4.50;99.90;;;;;;7383931;19;20651;-79
2022/02/22 05:03:03;;;;;;;2.05;1.27;;;4.50;99.90;;;;;;7387793;19;20392;-80
2022/02/22 05:05:29;;;;;;;1.45;1.30;;;4.50;99.90;;;;;;7386495;19;20326;-78
2022/02/22 05:07:55;;;;;;;3.08;1.90;;;4.50;99.90;;;;;;7384341;19;20325;-80
2022/02/22 05:10:21;;;;;;;4.13;1.92;;;4.50;99.90;;;;;;7381925;19;20333;-80
2022/02/22 05:12:47;;;;;;;2.13;1.63;;;4.50;99.90;;;;;;7343537;19;20344;-80
2022/02/22 05:15:12;;;;;;;2.33;1.65;;;4.50;99.90;;;;;;7383872;19;20332;-80
2022/02/22 05:17:38;;;;;;;4.43;1.87;;;4.50;99.90;;;;;;7380753;19;20331;-80
2022/02/22 05:20:08;;;;;;;3.78;2.45;;;4.50;99.90;;;;;;7378931;19;20701;-80
2022/02/22 05:22:44;;;;;;;2.45;1.55;;;4.40;99.90;;;;;;7380353;19;20403;-79
2022/02/22 05:25:11;;;;;;;4.07;2.28;;;4.60;99.90;;;;;;7380638;19;20858;-80
2022/02/22 05:27:37;;;;;;;4.57;2.35;;;4.50;99.90;;;;;;7381660;19;20403;-79
2022/02/22 05:30:04;;;;;;;3.75;2.22;;;4.50;99.90;;;;;;7378144;19;21046;-79
2022/02/22 05:32:30;;;;;;;3.60;1.97;;;4.40;99.90;;;;;;7379119;19;20884;-80
2022/02/22 05:34:56;;;;;;;3.87;2.33;;;4.50;99.90;;;;;;7381308;19;20362;-80
2022/02/22 05:37:22;;;;;;;2.78;1.70;;;4.60;99.90;;;;;;7383509;19;20506;-80
2022/02/22 05:39:48;;;;;;;4.43;2.10;;;4.60;99.90;;;;;;7382054;19;20332;-80
2022/02/22 05:42:13;;;;;;;6.05;2.22;;;4.50;99.90;;;;;;7379802;19;20349;-79
2022/02/22 05:44:39;;;;;;;6.83;2.13;;;4.50;99.90;;;;;;7382547;19;20704;-80
2022/02/22 05:47:05;;;;;;;2.70;1.98;;;4.50;99.90;;;;;;7380011;19;20330;-79
2022/02/22 05:49:30;;;;;;;10.43;2.60;;;4.50;99.90;;;;;;7380909;19;20317;-79
2022/02/22 05:51:56;;;;;;;3.53;2.20;;;4.50;99.90;;;;;;7381866;19;20357;-79
2022/02/22 05:54:22;;;;;;;4.05;2.22;;;4.50;99.90;;;;;;7379325;19;20332;-80
2022/02/22 05:56:47;;;;;;;4.83;2.17;;;4.50;99.90;;;;;;7381281;19;20329;-80
2022/02/22 05:59:14;;;;;;;3.00;2.03;;;4.60;99.90;;;;;;7383693;19;20340;-79
2022/02/22 06:01:43;;;;;;;5.75;2.42;;;4.60;99.90;;;;;;7378737;19;20329;-79
2022/02/22 06:04:11;;;;;;;4.95;2.67;;;4.50;99.90;;;;;;7382657;19;20324;-80
2022/02/22 06:06:46;;;;;;;4.22;2.30;;;4.60;99.90;;;;;;7355241;19;20356;-80
2022/02/22 06:09:15;;;;;;;6.27;2.60;;;4.50;99.90;;;;;;7381956;19;20316;-79
2022/02/22 06:11:43;;;;;;;6.38;2.35;;;4.50;99.90;;;;;;7385769;19;20324;-79
2022/02/22 06:14:21;;;;;;;4.97;2.10;;;4.50;99.90;;;;;;7340488;19;20347;-80
2022/02/22 06:16:48;;;;;;;4.72;2.35;;;4.50;99.90;;;;;;7356965;19;20427;-77
2022/02/22 06:19:58;;;;;;;3.30;2.40;;;4.50;99.90;;;;;;7262940;19;2004353;-79
2022/02/22 06:22:36;;;;;;;3.70;2.50;;;4.60;99.90;;;;;;7169550;19;2004546;-80
2022/02/22 06:25:25;;;;;;;7.97;2.92;;;4.50;99.90;;;;;;7240669;19;2004306;-79
2022/02/22 06:28:20;;;;;;;7.03;2.88;;;4.50;99.90;;;;;;7289698;19;20346;-80
2022/02/22 06:31:02;;;;;;;4.07;2.65;;;4.40;99.90;;;;;;7238255;19;2004576;-80
2022/02/22 06:34:04;;;;;;;9.85;2.83;;;4.40;99.90;;;;;;7250419;19;20351;-79
2022/02/22 06:36:48;;;;;;;4.28;2.53;;;4.40;99.90;;;;;;7221991;19;2004418;-79
2022/02/22 06:39:52;;;;;;;7.68;3.03;;;4.30;99.90;;;;;;7243277;19;2004471;-79
2022/02/22 06:42:29;;;;;;;7.50;2.95;;;4.30;99.90;;;;;;7313832;19;20383;-80
2022/02/22 06:45:00;;;;;;;5.20;2.53;;;4.30;99.90;;;;;;7340566;19;20380;-80
2022/02/22 06:47:48;;;;;;;6.85;2.63;;;4.10;99.90;;;;;;7380761;19;20344;-81
2022/02/22 06:50:24;;;;;;;4.22;2.33;;;4.10;99.90;;;;;;7340043;19;20513;-79
2022/02/22 06:52:57;;;;;;;10.35;3.08;;;4.00;99.90;;;;;;7230612;19;2004764;-79
2022/02/22 06:55:30;;;;;;;5.47;2.47;;;3.90;99.90;;;;;;7294928;19;20335;-79
2022/02/22 06:58:07;;;;;;;5.00;3.00;;;3.90;99.90;;;;;;7348872;19;20321;-80
2022/02/22 07:00:40;;;;;;;5.32;2.58;;;3.90;99.90;;;;;;7356290;19;20333;-79
2022/02/22 07:03:18;;;;;;;5.40;2.90;;;3.90;99.90;;;;;;7356769;19;20389;-80
2022/02/22 07:05:48;;;;;;;7.20;3.28;;;3.90;99.90;;;;;;7366528;19;20353;-78
2022/02/22 07:08:17;;;;;;;6.45;2.60;;;3.90;99.90;;;;;;7370134;19;20650;-79
2022/02/22 07:10:46;;;;;;;4.20;2.63;;;3.90;99.90;;;;;;7370166;19;20317;-79
2022/02/22 07:13:17;;;;;;;5.68;2.75;;;4.00;99.90;;;;;;7315604;19;20301;-80
2022/02/22 07:15:49;;;;;;;5.13;2.78;;;4.00;99.90;;;;;;7341067;19;20412;-79
2022/02/22 07:18:20;;;;;;;5.63;2.88;;;4.00;99.90;;;;;;7351472;19;21009;-79
2022/02/22 07:20:46;;;;;;;4.90;2.70;;;4.00;99.90;;;;;;7340816;19;20317;-78
2022/02/22 07:23:25;;;;;;;6.10;2.92;;;4.00;99.90;;;;;;7333877;19;20290;-79
2022/02/22 07:26:00;;;;;;;6.53;3.20;;;4.00;99.90;;;;;;7353698;19;20324;-78
2022/02/22 07:28:37;;;;;;;11.07;2.73;;;4.10;99.90;;;;;;7329307;19;20328;-80
2022/02/22 07:31:12;;;;;;;5.97;3.13;;;4.10;99.90;;;;;;7306046;19;20333;-79
2022/02/22 07:33:40;;;;;;;9.40;3.35;;;4.20;99.90;;;;;;7365693;19;20353;-79
2022/02/22 07:36:21;;;;;;;6.07;2.88;;;4.40;99.90;;;;;;7332968;19;20325;-79
2022/02/22 07:39:10;;;;;;;7.07;3.22;;;4.30;99.90;;;;;;7321447;19;20865;-80
2022/02/22 07:41:37;;;;;;;7.28;2.90;;;4.40;99.90;;;;;;7361819;19;20819;-79
2022/02/22 07:44:04;;;;;;;5.17;3.10;;;4.50;99.90;;;;;;7384965;19;20316;-79
2022/02/22 07:46:29;;;;;;;10.27;3.30;;;4.50;99.90;;;;;;7385616;19;20701;-79
2022/02/22 07:48:55;;;;;;;9.87;3.23;;;4.50;99.90;;;;;;7385201;19;20337;-80
2022/02/22 07:51:20;;;;;;;6.43;2.80;;;4.50;99.90;;;;;;7391633;19;20320;-80
2022/02/22 07:53:47;;;;;;;10.40;3.20;;;4.50;99.90;;;;;;7379869;19;20382;-79
2022/02/22 07:56:13;;;;;;;8.32;2.90;;;4.60;99.90;;;;;;7413267;19;20324;-78
2022/02/22 07:58:39;;;;;;;9.67;3.50;;;4.70;99.90;;;;;;7416867;19;20345;-80
2022/02/22 08:01:05;;;;;;;4.70;2.87;;;4.80;99.90;;;;;;7399208;19;20330;-80
2022/02/22 08:03:31;;;;;;;6.85;3.13;;;4.80;99.90;;;;;;7384468;19;20316;-80
2022/02/22 08:05:57;;;;;;;4.85;2.83;;;4.80;99.90;;;;;;7384358;19;20313;-78
2022/02/22 08:08:22;;;;;;;6.90;3.30;;;4.80;99.90;;;;;;7386383;19;20621;-80
2022/02/22 08:10:48;;;;;;;3.67;2.40;;;4.80;99.90;;;;;;7384042;19;20317;-79
2022/02/22 08:13:14;;;;;;;7.80;3.40;;;4.80;99.90;;;;;;7384951;19;20384;-80
2022/02/22 08:15:39;;;;;;;6.95;3.17;;;4.80;99.90;;;;;;7385761;19;20731;-79
2022/02/22 08:18:05;;;;;;;6.40;3.13;;;4.90;99.90;;;;;;7386042;19;20855;-79
2022/02/22 08:20:30;;;;;;;4.93;2.83;;;4.90;99.90;;;;;;7383210;19;21420;-80
2022/02/22 08:22:56;;;;;;;6.50;2.93;;;4.90;99.90;;;;;;7383274;19;20325;-79
2022/02/22 08:25:22;;;;;;;7.17;3.30;;;4.90;99.90;;;;;;7386111;19;20325;-79
2022/02/22 08:27:47;;;;;;;5.83;3.17;;;4.80;99.90;;;;;;7362665;19;20329;-79
2022/02/22 08:30:13;;;;;;;6.50;3.10;;;4.80;99.90;;;;;;7384646;19;20309;-80
2022/02/22 08:32:39;;;;;;;6.85;3.08;;;4.80;99.90;;;;;;7381726;19;20331;-79
2022/02/22 08:35:05;;;;;;;8.98;2.95;;;4.90;99.90;;;;;;7384664;19;20843;-79
2022/02/22 08:37:31;;;;;;;9.55;3.17;;;4.90;99.90;;;;;;7382664;19;20316;-80
2022/02/22 08:39:57;;;;;;;6.73;2.90;;;4.80;99.90;;;;;;7386295;19;20321;-80
2022/02/22 08:42:22;;;;;;;5.82;2.75;;;5.00;99.90;;;;;;7385520;19;20304;-79
2022/02/22 08:44:48;;;;;;;5.30;3.05;;;5.00;99.90;;;;;;7385043;19;20673;-80
2022/02/22 08:47:13;;;;;;;5.40;2.60;;;5.00;99.90;;;;;;7381464;19;20333;-78
2022/02/22 08:49:39;;;;;;;3.58;2.50;;;4.80;99.90;;;;;;7383768;19;20666;-80
2022/02/22 08:52:05;;;;;;;4.77;2.90;;;4.90;99.90;;;;;;7382651;19;20321;-80
2022/02/22 08:54:31;;;;;;;8.70;2.83;;;5.00;99.90;;;;;;7383562;19;20320;-80
2022/02/22 08:56:57;;;;;;;4.97;2.60;;;5.20;99.90;;;;;;7382514;19;20839;-79
2022/02/22 08:59:22;;;;;;;4.13;2.63;;;5.30;99.90;;;;;;7382663;19;20958;-80
2022/02/22 09:01:48;;;;;;;6.20;2.50;;;5.40;99.90;;;;;;7382754;19;20308;-78
2022/02/22 09:04:14;;;;;;;4.30;2.67;;;5.30;99.90;;;;;;7380174;19;20680;-80
2022/02/22 09:06:39;;;;;;;5.60;2.80;;;5.30;99.90;;;;;;7382147;19;20324;-79
2022/02/22 09:09:05;;;;;;;6.50;2.78;;;5.20;99.90;;;;;;7381488;19;20335;-80
2022/02/22 09:11:31;;;;;;;5.57;2.73;;;5.20;99.90;;;;;;7383409;19;20823;-79
2022/02/22 09:13:57;;;;;;;3.38;1.98;;;5.20;99.90;;;;;;7381616;19;20316;-79
2022/02/22 09:16:22;;;;;;;4.30;2.40;;;5.20;99.90;;;;;;7382232;19;20336;-79
2022/02/22 09:18:48;;;;;;;5.10;2.40;;;5.30;99.90;;;;;;7382860;19;20342;-79
2022/02/22 09:21:13;;;;;;;6.13;2.78;;;5.40;99.90;;;;;;7383561;19;20389;-79
2022/02/22 09:23:39;;;;;;;6.27;2.57;;;5.60;99.90;;;;;;7381930;19;20312;-79
2022/02/22 09:26:05;;;;;;;3.42;2.42;;;5.60;99.90;;;;;;7383761;19;20343;-80
2022/02/22 09:28:33;;;;;;;5.15;2.33;;;5.70;99.90;;;;;;7391931;19;20308;-81
2022/02/22 09:31:51;;;;;;;3.53;2.45;;;5.80;99.90;;;;;;7292879;19;20384;-81
2022/02/22 14:29:00;;;;;;;4.80;2.90;;;5.70;99.90;;;;;;7365505;19;23495;-69
2022/02/22 14:31:26;;;;;;;3.93;2.80;;;6.70;99.90;;;;;;7377693;19;20620;-70
2022/02/22 14:33:51;;;;;;;4.30;2.65;;;6.80;99.90;;;;;;7381642;19;20667;-69
2022/02/22 14:36:18;;;;;;;4.40;2.45;;;6.80;99.90;;;;;;7383052;19;20312;-69
2022/02/22 14:38:44;;;;;;;3.35;2.30;;;6.70;99.90;;;;;;7382426;19;20348;-70
2022/02/22 14:41:10;;;;;;;4.13;2.30;;;6.80;99.90;;;;;;7383228;19;20651;-69
2022/02/22 14:43:37;;;;;;;6.97;2.40;;;6.70;99.90;;;;;;7380905;19;20320;-69
2022/02/22 14:46:03;;;;;;;4.40;2.60;;;6.80;99.90;;;;;;7379568;19;20304;-69
2022/02/22 14:48:29;;;;;;;5.90;2.35;;;6.80;99.90;;;;;;7379015;19;20725;-70
2022/02/22 14:50:55;;;;;;;4.53;2.73;;;6.80;99.90;;;;;;7378675;19;20304;-70
2022/02/22 14:53:21;;;;;;;4.72;2.35;;;6.80;99.90;;;;;;7373759;19;20324;-69
2022/02/22 14:55:47;;;;;;;6.13;2.85;;;6.80;99.90;;;;;;7378684;19;20426;-69
2022/02/22 14:58:13;;;;;;;4.83;2.70;;;6.80;99.90;;;;;;7377241;19;20316;-69
2022/02/22 15:00:38;;;;;;;4.70;2.65;;;6.70;99.90;;;;;;7379271;19;20398;-69
2022/02/22 15:03:04;;;;;;;4.68;2.72;;;6.70;99.90;;;;;;7374937;19;20316;-69
2022/02/22 15:05:30;;;;;;;3.90;2.83;;;6.70;99.90;;;;;;7379132;19;20341;-69
2022/02/22 15:07:56;;;;;;;6.37;2.70;;;6.60;99.90;;;;;;7378604;19;20719;-69
2022/02/22 15:10:22;;;;;;;5.65;2.85;;;6.60;99.90;;;;;;7378195;19;20313;-70
2022/02/22 15:12:48;;;;;;;7.25;2.90;;;6.60;99.90;;;;;;7378679;19;20304;-69
2022/02/22 15:15:14;;;;;;;8.48;3.05;;;6.50;99.90;;;;;;7380115;19;20337;-69
2022/02/22 15:17:39;;;;;;;7.50;3.03;;;6.50;99.90;;;;;;7377821;19;21209;-70
2022/02/22 15:20:06;;;;;;;8.27;2.78;;;6.50;99.90;;;;;;7379760;19;20324;-69
2022/02/22 15:22:36;;;;;;;5.43;2.90;;;6.40;99.90;;;;;;7373843;19;20661;-70
2022/02/22 15:25:06;;;;;;;5.13;3.05;;;6.40;99.90;;;;;;7376998;19;20355;-70
2022/02/22 15:27:32;;;;;;;4.50;2.60;;;6.40;99.90;;;;;;7377848;19;20321;-69
2022/02/22 15:29:59;;;;;;;7.35;3.25;;;6.30;99.90;;;;;;7377697;19;20328;-70
2022/02/22 15:32:24;;;;;;;6.28;3.05;;;6.30;99.90;;;;;;7372789;19;20341;-70
2022/02/22 15:34:50;;;;;;;5.10;3.10;;;6.30;99.90;;;;;;7377942;19;20341;-69
2022/02/22 15:37:16;;;;;;;5.93;3.13;;;6.40;99.90;;;;;;7376590;19;20321;-69
2022/02/22 15:39:42;;;;;;;5.37;2.43;;;6.20;99.90;;;;;;7380948;19;21166;-70
2022/02/22 15:42:10;;;;;;;5.20;2.70;;;6.20;99.90;;;;;;7374600;19;20356;-70
2022/02/22 15:44:35;;;;;;;5.22;2.97;;;6.20;99.90;;;;;;7375663;19;20315;-70
2022/02/22 15:47:01;;;;;;;5.82;2.70;;;6.20;99.90;;;;;;7375447;19;20317;-70
2022/02/22 15:49:29;;;;;;;5.47;2.80;;;6.20;99.90;;;;;;7378002;19;20359;-69
2022/02/22 15:51:55;;;;;;;5.15;2.83;;;6.20;99.90;;;;;;7350838;19;20469;-69
2022/02/22 15:54:20;;;;;;;5.45;2.58;;;6.10;99.90;;;;;;7373526;19;20400;-69
2022/02/22 15:56:46;;;;;;;5.20;2.40;;;6.10;99.90;;;;;;7376061;19;20357;-69
2022/02/22 15:59:12;;;;;;;10.57;3.17;;;6.10;99.90;;;;;;7375777;19;20336;-69
2022/02/22 16:01:37;;;;;;;5.47;2.53;;;6.00;99.90;;;;;;7378418;19;20325;-69
2022/02/22 16:04:05;;;;;;;7.93;2.57;;;6.00;99.90;;;;;;7367121;19;20345;-69
2022/02/22 16:06:31;;;;;;;4.68;2.55;;;6.00;99.90;;;;;;7373118;19;20312;-69
2022/02/22 16:08:57;;;;;;;4.65;2.65;;;6.00;99.90;;;;;;7373599;19;20308;-69
2022/02/22 16:11:22;;;;;;;7.70;2.77;;;6.00;99.90;;;;;;7374715;19;20336;-68
2022/02/22 16:13:48;;;;;;;6.13;2.65;;;6.00;99.90;;;;;;7357034;19;20321;-68
2022/02/22 16:16:14;;;;;;;4.60;2.40;;;5.90;99.90;;;;;;7379093;19;20646;-67
2022/02/22 16:18:39;;;;;;;8.10;2.63;;;6.00;99.90;;;;;;7377603;19;20338;-67
2022/02/22 16:21:05;;;;;;;6.70;2.83;;;5.90;99.90;;;;;;7373986;19;20309;-67
2022/02/22 16:23:31;;;;;;;4.85;2.53;;;5.90;99.90;;;;;;7373456;19;20469;-68
2022/02/22 16:25:57;;;;;;;6.50;2.70;;;5.90;99.90;;;;;;7373916;19;20876;-68
2022/02/22 16:28:27;;;;;;;3.73;2.40;;;5.80;99.90;;;;;;7373372;19;20312;-68
2022/02/22 16:30:53;;;;;;;5.30;2.55;;;5.80;99.90;;;;;;7373894;19;20666;-67
2022/02/22 16:33:19;;;;;;;4.38;2.58;;;5.80;99.90;;;;;;7370815;19;20345;-68
2022/02/22 16:35:48;;;;;;;3.30;2.30;;;5.80;99.90;;;;;;7362376;19;21192;-68
2022/02/22 16:38:14;;;;;;;3.88;2.17;;;5.80;99.90;;;;;;7374710;19;20328;-68
2022/02/22 16:40:43;;;;;;;6.25;2.90;;;5.70;99.90;;;;;;7375484;19;20789;-67
2022/02/22 16:43:08;;;;;;;4.55;2.42;;;5.70;99.90;;;;;;7372765;19;20327;-67
2022/02/22 16:45:36;;;;;;;6.30;2.90;;;5.70;99.90;;;;;;7371215;19;20304;-68
2022/02/22 16:48:01;;;;;;;6.53;2.47;;;5.70;99.90;;;;;;7377586;19;20400;-67
2022/02/22 16:50:27;;;;;;;3.50;2.57;;;5.70;99.90;;;;;;7372911;19;20416;-67
2022/02/22 16:52:53;;;;;;;3.28;2.08;;;5.60;99.90;;;;;;7372710;19;20323;-68
2022/02/22 16:55:18;;;;;;;6.30;3.33;;;5.60;99.90;;;;;;7376090;19;20313;-67
2022/02/22 16:57:44;;;;;;;7.13;4.27;;;5.50;99.90;;;;;;7375474;19;20727;-68
2022/02/22 17:00:10;;;;;;;6.28;3.78;;;5.50;99.90;;;;;;7373473;19;20803;-68
2022/02/22 17:02:36;;;;;;;7.40;4.65;;;5.50;99.90;;;;;;7374353;19;20312;-67
2022/02/22 17:05:02;;;;;;;10.63;6.03;;;5.50;99.90;;;;;;7371788;19;20325;-67
2022/02/22 17:07:28;;;;;;;8.27;5.50;;;5.50;99.90;;;;;;7374424;19;20349;-67
2022/02/22 17:09:53;;;;;;;5.93;2.90;;;5.60;99.90;;;;;;7375427;19;20951;-67
2022/02/22 17:12:19;;;;;;;3.70;2.17;;;5.50;99.90;;;;;;7371750;19;20328;-67
2022/02/22 17:14:45;;;;;;;5.00;3.10;;;5.50;99.90;;;;;;7375726;19;20324;-67
2022/02/22 17:17:11;;;;;;;4.20;2.45;;;5.50;99.90;;;;;;7378373;19;20824;-68
2022/02/22 17:19:36;;;;;;;5.75;2.83;;;5.50;99.90;;;;;;7374107;19;20309;-67
2022/02/22 17:22:02;;;;;;;5.10;2.70;;;5.50;99.90;;;;;;7376244;19;20366;-68
2022/02/22 17:24:28;;;;;;;6.75;2.80;;;5.50;99.90;;;;;;7372049;19;20725;-68
2022/02/22 17:26:53;;;;;;;5.43;2.93;;;5.50;99.90;;;;;;7375044;19;20333;-67
2022/02/22 17:29:19;;;;;;;6.15;2.92;;;5.50;99.90;;;;;;7374214;19;20382;-67
2022/02/22 17:31:45;;;;;;;4.27;2.20;;;5.50;99.90;;;;;;7375148;19;20320;-68
2022/02/22 17:34:10;;;;;;;4.97;2.72;;;5.50;99.90;;;;;;7369649;19;20994;-68
2022/02/22 17:36:36;;;;;;;3.35;2.00;;;5.50;99.90;;;;;;7374103;19;20321;-68
2022/02/22 17:39:03;;;;;;;3.57;2.50;;;5.50;99.90;;;;;;7375099;19;20320;-67
2022/02/22 17:41:29;;;;;;;4.75;2.58;;;5.50;99.90;;;;;;7374501;19;20415;-68
2022/02/22 17:43:54;;;;;;;4.25;2.70;;;5.50;99.90;;;;;;7368612;19;20403;-67
2022/02/22 17:46:20;;;;;;;4.40;2.50;;;5.50;99.90;;;;;;7371090;19;20309;-67
2022/02/22 17:48:45;;;;;;;3.78;2.30;;;5.50;99.90;;;;;;7375310;19;20309;-68
2022/02/22 17:51:11;;;;;;;6.63;3.00;;;5.40;99.90;;;;;;7371251;19;21116;-68